sensor_id;sensor_type;location;lat;lon;timestamp;pressure;altitude;pressure_sealevel;temperature;humidity
57048;BME280;42934;54.294;18.598;2024-01-11T00:00:53;101576.16;;;0.86;99.97
57048;BME280;42934;54.294;18.598;2024-01-11T00:03:37;101608.03;;;0.85;99.42
57048;BME280;42934;54.294;18.598;2024-01-11T00:06:07;101617.31;;;0.79;99.75
57048;BME280;42934;54.294;18.598;2024-01-11T00:08:36;101624.28;;;0.81;99.32
57048;BME280;42934;54.294;18.598;2024-01-11T00:11:05;101634.81;;;0.90;99.17
57048;BME280;42934;54.294;18.598;2024-01-11T00:13:36;101634.06;;;0.95;99.00
57048;BME280;42934;54.294;18.598;2024-01-11T00:16:05;101654.91;;;1.02;98.69
57048;BME280;42934;54.294;18.598;2024-01-11T00:18:35;101640.06;;;0.94;98.48
57048;BME280;42934;54.294;18.598;2024-01-11T00:21:04;101628.19;;;1.02;98.75
57048;BME280;42934;54.294;18.598;2024-01-11T00:23:33;101630.00;;;1.06;97.55
57048;BME280;42934;54.294;18.598;2024-01-11T00:26:03;101629.25;;;1.11;98.10
57048;BME280;42934;54.294;18.598;2024-01-11T00:28:33;101629.19;;;1.07;97.89
57048;BME280;42934;54.294;18.598;2024-01-11T00:31:03;101632.69;;;1.09;96.85
57048;BME280;42934;54.294;18.598;2024-01-11T00:33:33;101635.22;;;1.07;97.62
57048;BME280;42934;54.294;18.598;2024-01-11T00:36:02;101628.38;;;1.11;96.78
57048;BME280;42934;54.294;18.598;2024-01-11T00:38:32;101621.59;;;1.16;96.90
57048;BME280;42934;54.294;18.598;2024-01-11T00:41:02;101627.69;;;1.18;96.34
57048;BME280;42934;54.294;18.598;2024-01-11T00:43:32;101622.34;;;1.09;96.85
57048;BME280;42934;54.294;18.598;2024-01-11T00:46:02;101605.91;;;1.07;96.36
57048;BME280;42934;54.294;18.598;2024-01-11T00:48:31;101614.28;;;0.97;96.18
57048;BME280;42934;54.294;18.598;2024-01-11T00:51:00;101608.38;;;1.02;96.06
57048;BME280;42934;54.294;18.598;2024-01-11T00:53:30;101591.19;;;1.04;96.28
57048;BME280;42934;54.294;18.598;2024-01-11T00:55:59;101579.00;;;0.99;95.49
57048;BME280;42934;54.294;18.598;2024-01-11T00:58:29;101577.34;;;1.02;95.28
57048;BME280;42934;54.294;18.598;2024-01-11T01:00:58;101574.81;;;1.05;96.02
57048;BME280;42934;54.294;18.598;2024-01-11T01:03:29;101575.97;;;1.18;94.98
57048;BME280;42934;54.294;18.598;2024-01-11T01:05:58;101582.13;;;1.26;95.22
57048;BME280;42934;54.294;18.598;2024-01-11T01:08:30;101600.31;;;1.29;94.95
57048;BME280;42934;54.294;18.598;2024-01-11T01:10:59;101606.28;;;1.25;94.73
57048;BME280;42934;54.294;18.598;2024-01-11T01:13:28;101612.13;;;1.15;94.46
57048;BME280;42934;54.294;18.598;2024-01-11T01:15:58;101624.31;;;1.21;93.90
57048;BME280;42934;54.294;18.598;2024-01-11T01:18:28;101621.00;;;1.29;93.95
57048;BME280;42934;54.294;18.598;2024-01-11T01:20:57;101626.91;;;1.22;94.19
57048;BME280;42934;54.294;18.598;2024-01-11T01:23:26;101635.41;;;1.17;93.75
57048;BME280;42934;54.294;18.598;2024-01-11T01:25:56;101623.47;;;1.22;93.87
57048;BME280;42934;54.294;18.598;2024-01-11T01:28:25;101601.09;;;1.24;94.39
57048;BME280;42934;54.294;18.598;2024-01-11T01:30:54;101583.84;;;1.24;94.07
57048;BME280;42934;54.294;18.598;2024-01-11T01:33:23;101571.84;;;1.29;93.98
57048;BME280;42934;54.294;18.598;2024-01-11T01:35:54;101572.56;;;1.21;94.06
57048;BME280;42934;54.294;18.598;2024-01-11T01:38:23;101555.34;;;1.23;93.46
57048;BME280;42934;54.294;18.598;2024-01-11T01:40:53;101550.44;;;1.36;93.60
57048;BME280;42934;54.294;18.598;2024-01-11T01:43:22;101554.72;;;1.34;93.40
57048;BME280;42934;54.294;18.598;2024-01-11T01:45:52;101545.78;;;1.19;93.59
57048;BME280;42934;54.294;18.598;2024-01-11T01:48:21;101530.47;;;1.29;93.34
57048;BME280;42934;54.294;18.598;2024-01-11T01:50:52;101525.22;;;1.26;93.55
57048;BME280;42934;54.294;18.598;2024-01-11T01:53:23;101526.13;;;1.28;93.60
57048;BME280;42934;54.294;18.598;2024-01-11T01:55:53;101527.69;;;1.19;93.86
57048;BME280;42934;54.294;18.598;2024-01-11T01:58:23;101530.34;;;1.23;93.69
57048;BME280;42934;54.294;18.598;2024-01-11T02:00:52;101529.59;;;1.29;93.37
57048;BME280;42934;54.294;18.598;2024-01-11T02:03:23;101518.38;;;1.28;93.30
57048;BME280;42934;54.294;18.598;2024-01-11T02:05:54;101531.31;;;1.27;92.98
57048;BME280;42934;54.294;18.598;2024-01-11T02:08:25;101532.28;;;1.35;93.23
57048;BME280;42934;54.294;18.598;2024-01-11T02:10:54;101541.06;;;1.42;92.84
57048;BME280;42934;54.294;18.598;2024-01-11T02:13:24;101529.75;;;1.38;92.53
57048;BME280;42934;54.294;18.598;2024-01-11T02:15:54;101528.09;;;1.40;92.72
57048;BME280;42934;54.294;18.598;2024-01-11T02:18:23;101498.72;;;1.38;92.16
57048;BME280;42934;54.294;18.598;2024-01-11T02:20:54;101501.13;;;1.29;92.84
57048;BME280;42934;54.294;18.598;2024-01-11T02:23:25;101490.13;;;1.39;92.10
57048;BME280;42934;54.294;18.598;2024-01-11T02:25:57;101491.81;;;1.37;92.67
57048;BME280;42934;54.294;18.598;2024-01-11T02:28:26;101479.63;;;1.31;92.15
57048;BME280;42934;54.294;18.598;2024-01-11T02:30:55;101480.59;;;1.36;92.48
57048;BME280;42934;54.294;18.598;2024-01-11T02:33:25;101466.91;;;1.44;92.01
57048;BME280;42934;54.294;18.598;2024-01-11T02:35:54;101469.53;;;1.45;92.40
57048;BME280;42934;54.294;18.598;2024-01-11T02:38:23;101482.41;;;1.42;92.35
57048;BME280;42934;54.294;18.598;2024-01-11T02:40:53;101488.94;;;1.22;91.65
57048;BME280;42934;54.294;18.598;2024-01-11T02:43:24;101470.91;;;1.26;92.13
57048;BME280;42934;54.294;18.598;2024-01-11T02:45:55;101470.34;;;1.43;91.82
57048;BME280;42934;54.294;18.598;2024-01-11T02:48:27;101468.56;;;1.39;91.69
57048;BME280;42934;54.294;18.598;2024-01-11T02:50:57;101450.34;;;1.32;92.49
57048;BME280;42934;54.294;18.598;2024-01-11T02:53:27;101431.38;;;1.33;92.05
57048;BME280;42934;54.294;18.598;2024-01-11T02:55:56;101414.94;;;1.31;92.05
57048;BME280;42934;54.294;18.598;2024-01-11T02:58:30;101420.22;;;1.36;91.73
57048;BME280;42934;54.294;18.598;2024-01-11T03:00:59;101426.31;;;1.41;91.43
57048;BME280;42934;54.294;18.598;2024-01-11T03:03:28;101415.03;;;1.36;91.92
57048;BME280;42934;54.294;18.598;2024-01-11T03:05:57;101407.94;;;1.24;92.14
57048;BME280;42934;54.294;18.598;2024-01-11T03:08:27;101411.50;;;1.31;91.81
57048;BME280;42934;54.294;18.598;2024-01-11T03:10:56;101407.22;;;1.34;91.46
57048;BME280;42934;54.294;18.598;2024-01-11T03:13:26;101414.19;;;1.35;91.43
57048;BME280;42934;54.294;18.598;2024-01-11T03:15:56;101407.09;;;1.25;91.75
57048;BME280;42934;54.294;18.598;2024-01-11T03:18:25;101406.38;;;1.32;92.04
57048;BME280;42934;54.294;18.598;2024-01-11T03:20:54;101402.97;;;1.36;92.03
57048;BME280;42934;54.294;18.598;2024-01-11T03:23:24;101408.88;;;1.29;91.58
57048;BME280;42934;54.294;18.598;2024-01-11T03:25:53;101412.28;;;1.27;92.12
57048;BME280;42934;54.294;18.598;2024-01-11T03:28:22;101414.13;;;1.34;91.61
57048;BME280;42934;54.294;18.598;2024-01-11T03:30:51;101416.72;;;1.34;91.06
57048;BME280;42934;54.294;18.598;2024-01-11T03:33:22;101421.84;;;1.31;91.47
57048;BME280;42934;54.294;18.598;2024-01-11T03:35:51;101406.31;;;1.31;91.61
57048;BME280;42934;54.294;18.598;2024-01-11T03:38:21;101398.69;;;1.39;91.86
57048;BME280;42934;54.294;18.598;2024-01-11T03:40:50;101398.59;;;1.32;91.15
57048;BME280;42934;54.294;18.598;2024-01-11T03:43:20;101402.00;;;1.30;91.75
57048;BME280;42934;54.294;18.598;2024-01-11T03:45:49;101406.09;;;1.19;91.86
57048;BME280;42934;54.294;18.598;2024-01-11T03:48:18;101414.88;;;1.27;92.01
57048;BME280;42934;54.294;18.598;2024-01-11T03:50:49;101413.16;;;1.27;91.93
57048;BME280;42934;54.294;18.598;2024-01-11T03:53:18;101407.09;;;1.25;91.80
57048;BME280;42934;54.294;18.598;2024-01-11T03:55:47;101398.41;;;1.22;92.39
57048;BME280;42934;54.294;18.598;2024-01-11T03:58:17;101394.91;;;1.18;92.62
57048;BME280;42934;54.294;18.598;2024-01-11T04:00:46;101398.59;;;1.34;91.88
57048;BME280;42934;54.294;18.598;2024-01-11T04:03:15;101400.94;;;1.19;92.02
57048;BME280;42934;54.294;18.598;2024-01-11T04:05:44;101402.72;;;1.21;92.57
57048;BME280;42934;54.294;18.598;2024-01-11T04:08:15;101392.47;;;1.27;92.42
57048;BME280;42934;54.294;18.598;2024-01-11T04:10:44;101400.19;;;1.26;91.98
57048;BME280;42934;54.294;18.598;2024-01-11T04:13:14;101383.00;;;1.29;91.77
57048;BME280;42934;54.294;18.598;2024-01-11T04:15:43;101385.38;;;1.17;92.76
57048;BME280;42934;54.294;18.598;2024-01-11T04:18:12;101382.00;;;1.21;92.29
57048;BME280;42934;54.294;18.598;2024-01-11T04:20:41;101388.72;;;1.10;93.04
57048;BME280;42934;54.294;18.598;2024-01-11T04:23:11;101378.22;;;1.02;92.56
57048;BME280;42934;54.294;18.598;2024-01-11T04:25:41;101371.38;;;1.06;93.52
57048;BME280;42934;54.294;18.598;2024-01-11T04:28:10;101365.38;;;1.07;92.82
57048;BME280;42934;54.294;18.598;2024-01-11T04:30:39;101361.78;;;0.99;93.47
57048;BME280;42934;54.294;18.598;2024-01-11T04:33:09;101362.81;;;1.08;93.34
57048;BME280;42934;54.294;18.598;2024-01-11T04:35:39;101373.28;;;1.16;93.72
57048;BME280;42934;54.294;18.598;2024-01-11T04:38:08;101366.41;;;1.15;92.76
57048;BME280;42934;54.294;18.598;2024-01-11T04:40:37;101369.09;;;1.21;93.42
57048;BME280;42934;54.294;18.598;2024-01-11T04:43:08;101344.94;;;1.21;93.10
57048;BME280;42934;54.294;18.598;2024-01-11T04:45:38;101340.28;;;1.03;93.36
57048;BME280;42934;54.294;18.598;2024-01-11T04:48:07;101338.03;;;1.21;92.96
57048;BME280;42934;54.294;18.598;2024-01-11T04:50:36;101355.25;;;1.19;92.58
57048;BME280;42934;54.294;18.598;2024-01-11T04:53:06;101344.94;;;1.21;92.42
57048;BME280;42934;54.294;18.598;2024-01-11T04:55:35;101351.81;;;1.20;93.18
57048;BME280;42934;54.294;18.598;2024-01-11T04:58:04;101347.44;;;1.16;93.14
57048;BME280;42934;54.294;18.598;2024-01-11T05:00:35;101338.72;;;1.09;93.18
57048;BME280;42934;54.294;18.598;2024-01-11T05:03:04;101345.66;;;1.12;93.12
57048;BME280;42934;54.294;18.598;2024-01-11T05:05:33;101341.44;;;1.20;92.85
57048;BME280;42934;54.294;18.598;2024-01-11T05:08:04;101343.25;;;1.24;92.21
57048;BME280;42934;54.294;18.598;2024-01-11T05:10:35;101340.72;;;1.27;93.07
57048;BME280;42934;54.294;18.598;2024-01-11T05:13:04;101340.72;;;1.27;92.63
57048;BME280;42934;54.294;18.598;2024-01-11T05:15:35;101350.31;;;1.34;92.39
57048;BME280;42934;54.294;18.598;2024-01-11T05:18:05;101357.81;;;1.19;93.35
57048;BME280;42934;54.294;18.598;2024-01-11T05:20:34;101355.19;;;1.18;92.86
57048;BME280;42934;54.294;18.598;2024-01-11T05:23:03;101358.69;;;1.18;93.61
57048;BME280;42934;54.294;18.598;2024-01-11T05:25:33;101360.50;;;1.24;93.45
57048;BME280;42934;54.294;18.598;2024-01-11T05:28:03;101354.63;;;1.32;92.81
57048;BME280;42934;54.294;18.598;2024-01-11T05:30:35;101359.72;;;1.29;92.67
57048;BME280;42934;54.294;18.598;2024-01-11T05:33:04;101362.28;;;1.28;92.88
57048;BME280;42934;54.294;18.598;2024-01-11T05:35:34;101371.16;;;1.42;92.37
57048;BME280;42934;54.294;18.598;2024-01-11T05:38:03;101373.50;;;1.28;92.87
57048;BME280;42934;54.294;18.598;2024-01-11T05:40:32;101384.00;;;1.38;92.96
57048;BME280;42934;54.294;18.598;2024-01-11T05:43:02;101361.72;;;1.44;92.58
57048;BME280;42934;54.294;18.598;2024-01-11T05:45:31;101350.22;;;1.27;92.91
57048;BME280;42934;54.294;18.598;2024-01-11T05:48:16;101344.28;;;1.32;92.07
57048;BME280;42934;54.294;18.598;2024-01-11T05:50:45;101346.06;;;1.38;93.05
57048;BME280;42934;54.294;18.598;2024-01-11T05:53:15;101350.34;;;1.36;92.60
57048;BME280;42934;54.294;18.598;2024-01-11T05:55:45;101350.44;;;1.42;92.50
57048;BME280;42934;54.294;18.598;2024-01-11T05:58:14;101350.56;;;1.50;92.46
57048;BME280;42934;54.294;18.598;2024-01-11T06:00:43;101352.44;;;1.60;91.96
57048;BME280;42934;54.294;18.598;2024-01-11T06:03:12;101375.03;;;1.69;91.25
57048;BME280;42934;54.294;18.598;2024-01-11T06:05:43;101367.84;;;1.51;91.03
57048;BME280;42934;54.294;18.598;2024-01-11T06:08:13;101364.38;;;1.50;92.16
57048;BME280;42934;54.294;18.598;2024-01-11T06:10:42;101379.97;;;1.55;91.43
57048;BME280;42934;54.294;18.598;2024-01-11T06:13:11;101372.19;;;1.53;91.85
57048;BME280;42934;54.294;18.598;2024-01-11T06:15:40;101372.16;;;1.50;92.10
57048;BME280;42934;54.294;18.598;2024-01-11T06:18:11;101380.84;;;1.55;92.04
57048;BME280;42934;54.294;18.598;2024-01-11T06:20:44;101360.91;;;1.48;91.54
57048;BME280;42934;54.294;18.598;2024-01-11T06:23:14;101362.63;;;1.48;91.60
57048;BME280;42934;54.294;18.598;2024-01-11T06:25:45;101357.31;;;1.39;91.67
57048;BME280;42934;54.294;18.598;2024-01-11T06:28:15;101366.75;;;1.36;91.74
57048;BME280;42934;54.294;18.598;2024-01-11T06:30:44;101357.25;;;1.35;92.33
57048;BME280;42934;54.294;18.598;2024-01-11T06:33:13;101353.88;;;1.41;92.12
57048;BME280;42934;54.294;18.598;2024-01-11T06:35:44;101356.63;;;1.52;92.22
57048;BME280;42934;54.294;18.598;2024-01-11T06:38:13;101341.81;;;1.42;91.74
57048;BME280;42934;54.294;18.598;2024-01-11T06:40:42;101348.69;;;1.41;91.55
57048;BME280;42934;54.294;18.598;2024-01-11T06:43:12;101343.59;;;1.44;92.26
57048;BME280;42934;54.294;18.598;2024-01-11T06:45:42;101341.91;;;1.49;91.76
57048;BME280;42934;54.294;18.598;2024-01-11T06:48:11;101344.31;;;1.37;92.08
57048;BME280;42934;54.294;18.598;2024-01-11T06:50:42;101345.19;;;1.36;92.14
57048;BME280;42934;54.294;18.598;2024-01-11T06:53:12;101347.81;;;1.41;91.70
57048;BME280;42934;54.294;18.598;2024-01-11T06:55:41;101352.28;;;1.49;92.32
57048;BME280;42934;54.294;18.598;2024-01-11T06:58:11;101361.47;;;1.32;92.38
57048;BME280;42934;54.294;18.598;2024-01-11T07:00:40;101355.53;;;1.38;92.18
57048;BME280;42934;54.294;18.598;2024-01-11T07:03:11;101353.03;;;1.44;93.02
57048;BME280;42934;54.294;18.598;2024-01-11T07:05:42;101350.59;;;1.51;92.02
57048;BME280;42934;54.294;18.598;2024-01-11T07:08:12;101354.97;;;1.55;91.68
57048;BME280;42934;54.294;18.598;2024-01-11T07:10:41;101360.84;;;1.47;92.32
57048;BME280;42934;54.294;18.598;2024-01-11T07:13:10;101351.41;;;1.49;92.51
57048;BME280;42934;54.294;18.598;2024-01-11T07:15:42;101346.13;;;1.43;92.55
57048;BME280;42934;54.294;18.598;2024-01-11T07:18:12;101349.72;;;1.52;92.51
57048;BME280;42934;54.294;18.598;2024-01-11T07:20:43;101350.56;;;1.50;92.44
57048;BME280;42934;54.294;18.598;2024-01-11T07:23:12;101351.47;;;1.52;92.01
57048;BME280;42934;54.294;18.598;2024-01-11T07:25:42;101360.13;;;1.55;92.50
57048;BME280;42934;54.294;18.598;2024-01-11T07:28:11;101366.88;;;1.44;92.24
57048;BME280;42934;54.294;18.598;2024-01-11T07:30:40;101366.94;;;1.47;92.76
57048;BME280;42934;54.294;18.598;2024-01-11T07:33:10;101370.38;;;1.48;93.03
57048;BME280;42934;54.294;18.598;2024-01-11T07:35:39;101371.16;;;1.44;92.40
57048;BME280;42934;54.294;18.598;2024-01-11T07:38:09;101375.63;;;1.52;92.81
57048;BME280;42934;54.294;18.598;2024-01-11T07:40:39;101371.16;;;1.44;93.12
57048;BME280;42934;54.294;18.598;2024-01-11T07:43:12;101367.66;;;1.40;92.67
57048;BME280;42934;54.294;18.598;2024-01-11T07:45:41;101367.69;;;1.42;92.95
57048;BME280;42934;54.294;18.598;2024-01-11T07:48:11;101364.31;;;1.46;93.06
57048;BME280;42934;54.294;18.598;2024-01-11T07:50:41;101359.84;;;1.37;93.24
57048;BME280;42934;54.294;18.598;2024-01-11T07:53:11;101365.00;;;1.35;93.47
57048;BME280;42934;54.294;18.598;2024-01-11T07:55:40;101366.78;;;1.40;93.58
57048;BME280;42934;54.294;18.598;2024-01-11T07:58:10;101358.41;;;1.54;92.98
57048;BME280;42934;54.294;18.598;2024-01-11T08:00:39;101360.19;;;1.58;93.02
57048;BME280;42934;54.294;18.598;2024-01-11T08:03:09;101363.63;;;1.56;92.59
57048;BME280;42934;54.294;18.598;2024-01-11T08:05:39;101359.34;;;1.59;92.71
57048;BME280;42934;54.294;18.598;2024-01-11T08:08:08;101349.81;;;1.57;92.19
57048;BME280;42934;54.294;18.598;2024-01-11T08:10:39;101354.72;;;1.39;92.76
57048;BME280;42934;54.294;18.598;2024-01-11T08:13:09;101349.78;;;1.55;92.59
57048;BME280;42934;54.294;18.598;2024-01-11T08:15:38;101355.84;;;1.56;93.25
57048;BME280;42934;54.294;18.598;2024-01-11T08:18:07;101354.88;;;1.49;93.48
57048;BME280;42934;54.294;18.598;2024-01-11T08:20:36;101365.41;;;1.62;92.53
57048;BME280;42934;54.294;18.598;2024-01-11T08:23:07;101373.97;;;1.56;92.61
57048;BME280;42934;54.294;18.598;2024-01-11T08:25:36;101373.13;;;1.57;92.82
57048;BME280;42934;54.294;18.598;2024-01-11T08:28:07;101371.47;;;1.62;93.34
57048;BME280;42934;54.294;18.598;2024-01-11T08:30:36;101367.94;;;1.58;92.43
57048;BME280;42934;54.294;18.598;2024-01-11T08:33:05;101376.75;;;1.68;92.46
57048;BME280;42934;54.294;18.598;2024-01-11T08:35:35;101377.50;;;1.63;92.39
57048;BME280;42934;54.294;18.598;2024-01-11T08:38:04;101364.56;;;1.63;92.48
57048;BME280;42934;54.294;18.598;2024-01-11T08:40:34;101373.38;;;1.74;92.31
57048;BME280;42934;54.294;18.598;2024-01-11T08:43:04;101369.84;;;1.70;92.91
57048;BME280;42934;54.294;18.598;2024-01-11T08:45:35;101367.44;;;1.79;92.18
57048;BME280;42934;54.294;18.598;2024-01-11T08:48:05;101377.66;;;1.72;93.28
57048;BME280;42934;54.294;18.598;2024-01-11T08:50:35;101370.94;;;1.83;92.52
57048;BME280;42934;54.294;18.598;2024-01-11T08:53:05;101362.16;;;1.75;92.53
57048;BME280;42934;54.294;18.598;2024-01-11T08:55:34;101360.31;;;1.66;93.42
57048;BME280;42934;54.294;18.598;2024-01-11T08:58:04;101357.13;;;1.83;93.42
57048;BME280;42934;54.294;18.598;2024-01-11T09:00:34;101354.34;;;1.73;93.14
57048;BME280;42934;54.294;18.598;2024-01-11T09:03:04;101350.13;;;1.77;92.84
57048;BME280;42934;54.294;18.598;2024-01-11T09:05:33;101354.53;;;1.83;92.39
57048;BME280;42934;54.294;18.598;2024-01-11T09:08:03;101352.03;;;1.90;92.95
57048;BME280;42934;54.294;18.598;2024-01-11T09:10:35;101357.31;;;1.99;92.41
57048;BME280;42934;54.294;18.598;2024-01-11T09:13:04;101352.25;;;2.07;92.14
57048;BME280;42934;54.294;18.598;2024-01-11T09:15:34;101351.47;;;2.13;91.67
57048;BME280;42934;54.294;18.598;2024-01-11T09:18:04;101356.63;;;2.10;91.79
57048;BME280;42934;54.294;18.598;2024-01-11T09:20:34;101343.63;;;2.08;92.16
57048;BME280;42934;54.294;18.598;2024-01-11T09:23:04;101355.72;;;2.08;92.29
57048;BME280;42934;54.294;18.598;2024-01-11T09:25:33;101348.88;;;2.14;91.80
57048;BME280;42934;54.294;18.598;2024-01-11T09:28:03;101353.19;;;2.12;92.26
57048;BME280;42934;54.294;18.598;2024-01-11T09:30:33;101347.13;;;2.12;91.96
57048;BME280;42934;54.294;18.598;2024-01-11T09:33:04;101349.00;;;2.22;91.41
57048;BME280;42934;54.294;18.598;2024-01-11T09:35:34;101348.25;;;2.31;91.48
57048;BME280;42934;54.294;18.598;2024-01-11T09:38:04;101356.97;;;2.36;91.45
57048;BME280;42934;54.294;18.598;2024-01-11T09:40:33;101353.34;;;2.26;91.15
57048;BME280;42934;54.294;18.598;2024-01-11T09:43:04;101344.91;;;2.39;91.22
57048;BME280;42934;54.294;18.598;2024-01-11T09:45:33;101351.84;;;2.42;91.43
57048;BME280;42934;54.294;18.598;2024-01-11T09:48:05;101345.09;;;2.58;90.84
57048;BME280;42934;54.294;18.598;2024-01-11T09:50:36;101354.50;;;2.49;90.33
57048;BME280;42934;54.294;18.598;2024-01-11T09:53:07;101356.19;;;2.44;90.75
57048;BME280;42934;54.294;18.598;2024-01-11T09:55:38;101353.72;;;2.55;90.54
57048;BME280;42934;54.294;18.598;2024-01-11T09:58:08;101358.94;;;2.58;89.73
57048;BME280;42934;54.294;18.598;2024-01-11T10:00:38;101357.16;;;2.54;90.35
57048;BME280;42934;54.294;18.598;2024-01-11T10:03:10;101352.22;;;2.74;90.03
57048;BME280;42934;54.294;18.598;2024-01-11T10:05:41;101348.69;;;2.70;90.04
57048;BME280;42934;54.294;18.598;2024-01-11T10:08:11;101355.59;;;2.70;89.40
57048;BME280;42934;54.294;18.598;2024-01-11T10:10:40;101361.69;;;2.72;89.47
57048;BME280;42934;54.294;18.598;2024-01-11T10:13:11;101365.16;;;2.72;89.20
57048;BME280;42934;54.294;18.598;2024-01-11T10:15:40;101373.78;;;2.71;89.15
57048;BME280;42934;54.294;18.598;2024-01-11T10:18:11;101365.19;;;2.74;89.05
57048;BME280;42934;54.294;18.598;2024-01-11T10:20:41;101371.16;;;2.70;89.32
57048;BME280;42934;54.294;18.598;2024-01-11T10:23:11;101379.00;;;2.76;88.96
57048;BME280;42934;54.294;18.598;2024-01-11T10:25:40;101370.34;;;2.71;89.17
57048;BME280;42934;54.294;18.598;2024-01-11T10:28:13;101359.16;;;2.78;88.87
57048;BME280;42934;54.294;18.598;2024-01-11T10:30:46;101369.50;;;2.75;89.02
57048;BME280;42934;54.294;18.598;2024-01-11T10:33:19;101358.34;;;2.84;89.06
57048;BME280;42934;54.294;18.598;2024-01-11T10:35:49;101360.88;;;2.79;88.64
57048;BME280;42934;54.294;18.598;2024-01-11T10:38:19;101371.94;;;2.61;88.88
57048;BME280;42934;54.294;18.598;2024-01-11T10:40:50;101359.19;;;2.80;88.88
57048;BME280;42934;54.294;18.598;2024-01-11T10:43:22;101356.63;;;2.84;88.63
57048;BME280;42934;54.294;18.598;2024-01-11T10:45:52;101357.47;;;2.82;89.05
57048;BME280;42934;54.294;18.598;2024-01-11T10:48:26;101356.41;;;2.63;89.45
57048;BME280;42934;54.294;18.598;2024-01-11T10:51:01;101349.63;;;2.74;89.13
57048;BME280;42934;54.294;18.598;2024-01-11T10:53:40;101341.88;;;2.79;89.12
57048;BME280;42934;54.294;18.598;2024-01-11T10:56:10;101352.19;;;2.71;89.17
57048;BME280;42934;54.294;18.598;2024-01-11T10:58:41;101338.34;;;2.73;88.95
57048;BME280;42934;54.294;18.598;2024-01-11T11:01:12;101353.13;;;2.81;89.18
57048;BME280;42934;54.294;18.598;2024-01-11T11:03:44;101368.66;;;2.79;88.55
57048;BME280;42934;54.294;18.598;2024-01-11T11:06:14;101372.09;;;2.75;88.86
57048;BME280;42934;54.294;18.598;2024-01-11T11:08:45;101367.84;;;2.80;88.83
57048;BME280;42934;54.294;18.598;2024-01-11T11:11:18;101361.75;;;2.77;88.95
57048;BME280;42934;54.294;18.598;2024-01-11T11:13:48;101364.28;;;2.73;88.91
57048;BME280;42934;54.294;18.598;2024-01-11T11:16:17;101350.47;;;2.75;89.10
57048;BME280;42934;54.294;18.598;2024-01-11T11:18:52;101334.84;;;2.70;89.38
57048;BME280;42934;54.294;18.598;2024-01-11T11:21:22;101339.25;;;2.74;89.57
57048;BME280;42934;54.294;18.598;2024-01-11T11:23:52;101334.94;;;2.79;89.51
57048;BME280;42934;54.294;18.598;2024-01-11T11:26:26;101337.56;;;2.82;89.08
57048;BME280;42934;54.294;18.598;2024-01-11T11:28:57;101332.34;;;2.79;89.13
57048;BME280;42934;54.294;18.598;2024-01-11T11:31:44;101343.44;;;2.64;89.86
57048;BME280;42934;54.294;18.598;2024-01-11T11:34:20;101339.31;;;2.80;89.38
57048;BME280;42934;54.294;18.598;2024-01-11T11:36:50;101343.63;;;2.80;89.64
57048;BME280;42934;54.294;18.598;2024-01-11T11:39:23;101341.00;;;2.77;89.57
57048;BME280;42934;54.294;18.598;2024-01-11T11:41:53;101353.03;;;2.73;89.96
57048;BME280;42934;54.294;18.598;2024-01-11T11:44:25;101340.03;;;2.68;90.45
57048;BME280;42934;54.294;18.598;2024-01-11T11:46:55;101343.53;;;2.73;90.55
57048;BME280;42934;54.294;18.598;2024-01-11T11:50:04;101353.00;;;2.70;90.51
57048;BME280;42934;54.294;18.598;2024-01-11T11:52:34;101344.31;;;2.62;91.56
57048;BME280;42934;54.294;18.598;2024-01-11T11:55:06;101352.91;;;2.61;92.11
57048;BME280;42934;54.294;18.598;2024-01-11T11:57:36;101352.13;;;2.65;91.65
57048;BME280;42934;54.294;18.598;2024-01-11T12:00:06;101345.28;;;2.75;91.91
57048;BME280;42934;54.294;18.598;2024-01-11T12:02:39;101341.91;;;2.80;91.70
57048;BME280;42934;54.294;18.598;2024-01-11T12:05:10;101334.22;;;2.92;92.07
57048;BME280;42934;54.294;18.598;2024-01-11T12:07:39;101324.94;;;3.17;90.88
57048;BME280;42934;54.294;18.598;2024-01-11T12:10:09;101325.94;;;3.33;90.63
57048;BME280;42934;54.294;18.598;2024-01-11T12:12:38;101330.22;;;3.28;90.58
57048;BME280;42934;54.294;18.598;2024-01-11T12:15:08;101332.13;;;3.51;90.04
57048;BME280;42934;54.294;18.598;2024-01-11T12:17:39;101328.69;;;3.55;89.59
57048;BME280;42934;54.294;18.598;2024-01-11T12:20:12;101328.72;;;3.56;89.09
57048;BME280;42934;54.294;18.598;2024-01-11T12:22:42;101332.09;;;3.49;88.72
57048;BME280;42934;54.294;18.598;2024-01-11T12:25:11;101337.25;;;3.43;88.63
57048;BME280;42934;54.294;18.598;2024-01-11T12:27:41;101340.66;;;3.33;89.00
57048;BME280;42934;54.294;18.598;2024-01-11T12:30:11;101334.63;;;3.35;88.75
57048;BME280;42934;54.294;18.598;2024-01-11T12:32:45;101327.63;;;3.28;88.62
57048;BME280;42934;54.294;18.598;2024-01-11T12:35:17;101323.97;;;3.05;89.40
57048;BME280;42934;54.294;18.598;2024-01-11T12:37:53;101331.03;;;3.18;89.27
57048;BME280;42934;54.294;18.598;2024-01-11T12:40:23;101332.78;;;3.22;89.43
57048;BME280;42934;54.294;18.598;2024-01-11T12:42:52;101331.00;;;3.19;89.38
57048;BME280;42934;54.294;18.598;2024-01-11T12:45:21;101334.47;;;3.18;89.42
57048;BME280;42934;54.294;18.598;2024-01-11T12:47:50;101339.63;;;3.17;89.51
57048;BME280;42934;54.294;18.598;2024-01-11T12:50:21;101345.66;;;3.14;89.55
57048;BME280;42934;54.294;18.598;2024-01-11T12:53:07;101347.41;;;3.17;89.60
57048;BME280;42934;54.294;18.598;2024-01-11T12:55:37;101337.00;;;3.14;89.51
57048;BME280;42934;54.294;18.598;2024-01-11T12:58:24;101347.41;;;3.17;89.81
57048;BME280;42934;54.294;18.598;2024-01-11T13:00:54;101345.69;;;3.17;89.73
57048;BME280;42934;54.294;18.598;2024-01-11T13:03:25;101342.25;;;3.15;89.94
57048;BME280;42934;54.294;18.598;2024-01-11T13:05:57;101342.25;;;3.18;89.66